Terminal Aerodrome Forecast
Issued by NWS Atlanta, GA

Home | Current Version | Previous Version | Text Only | Print | Product List | Glossary On
Versions: 1 2 3 4 5 6 7 8 9 10 11 12 13
000
FTUS42 KFFC 311730
TAFMCN
TAF
KMCN 311730Z 3118/0118 12004KT P6SM SCT120
     FM011400 14006KT P6SM BKN040
     FM011700 17008KT P6SM OVC025=

USA.gov is the U.S. government's official web portal to all federal, state and local government web resources and services.